Station History

Weather Underground - logo

Station Historical Data
Daily Summary for October 28, 2017 Units:  English    Metric   Both
« Previous Day
Next Day »
Daily Weekly Monthly Yearly Custom
  High: Low: Average:
Temperature: 86.4 °F 51.7 °F 67.5 °F
Dew Point: 58.3 °F 48.4 °F 54.2 °F
Humidity: 91 % 35 % 67 %
Wind Speed: 3.5 mph 0.0 mph 0.4 mph
Wind Gust: 3.5 mph - -
Wind:- - WSW
Pressure: 29.94 in 29.82 in -
Precipitation: 0.00 in    
Historical Graphs
 
 
Tabular Data for October 28, 2017
Time Temperature Dew Point Pressure Wind Wind Speed Wind Gust Humidity Rainfall Rate (Hourly)
00:02 59.3 °F 55.1 °F 29.91 in Calm     86 % 0.00 in
00:07 59.3 °F 55.1 °F 29.91 in Calm     86 % 0.00 in
00:12 59.3 °F 54.8 °F 29.91 in Calm     85 % 0.00 in
00:17 59.3 °F 54.8 °F 29.91 in Calm     85 % 0.00 in
00:22 59.2 °F 54.7 °F 29.91 in Calm     85 % 0.00 in
00:27 59.1 °F 54.9 °F 29.91 in Calm     86 % 0.00 in
00:32 59.0 °F 54.5 °F 29.91 in Calm     85 % 0.00 in
00:37 58.9 °F 54.4 °F 29.91 in Calm     85 % 0.00 in
00:42 59.2 °F 54.4 °F 29.91 in Calm     84 % 0.00 in
00:47 59.5 °F 54.0 °F 29.91 in Calm     82 % 0.00 in
00:52 59.7 °F 53.2 °F 29.91 in Calm     79 % 0.00 in
00:57 60.0 °F 52.8 °F 29.91 in Calm     77 % 0.00 in
01:02 60.0 °F 53.1 °F 29.91 in Calm     78 % 0.00 in
01:07 59.6 °F 53.4 °F 29.91 in Calm     80 % 0.00 in
01:12 58.6 °F 52.8 °F 29.91 in Calm     81 % 0.00 in
01:17 57.8 °F 52.3 °F 29.91 in Calm     82 % 0.00 in
01:22 57.4 °F 52.3 °F 29.91 in Calm     83 % 0.00 in
01:27 57.1 °F 52.3 °F 29.91 in Calm     84 % 0.00 in
01:32 56.8 °F 52.3 °F 29.91 in Calm     85 % 0.00 in
01:37 56.7 °F 52.6 °F 29.91 in Calm     86 % 0.00 in
01:42 56.6 °F 52.5 °F 29.91 in Calm     86 % 0.00 in
01:47 56.8 °F 52.7 °F 29.91 in Calm     86 % 0.00 in
01:52 56.8 °F 52.7 °F 29.91 in South 1.2 mph   86 % 0.00 in
01:57 56.5 °F 52.4 °F 29.91 in Calm     86 % 0.00 in
02:02 56.3 °F 52.5 °F 29.91 in Calm     87 % 0.00 in
02:07 56.1 °F 52.6 °F 29.91 in Calm     88 % 0.00 in
02:12 56.0 °F 52.5 °F 29.91 in Calm     88 % 0.00 in
02:17 55.9 °F 52.4 °F 29.91 in Calm     88 % 0.00 in
02:22 55.8 °F 52.3 °F 29.91 in Calm     88 % 0.00 in
02:27 55.9 °F 52.4 °F 29.91 in Calm     88 % 0.00 in
02:32 55.8 °F 52.3 °F 29.92 in Calm     88 % 0.00 in
02:37 55.9 °F 52.7 °F 29.92 in Calm     89 % 0.00 in
02:42 56.0 °F 52.5 °F 29.92 in Calm     88 % 0.00 in
02:47 55.9 °F 52.4 °F 29.92 in Calm     88 % 0.00 in
02:52 55.7 °F 52.2 °F 29.92 in Calm     88 % 0.00 in
02:57 55.5 °F 52.0 °F 29.92 in Calm     88 % 0.00 in
03:02 55.2 °F 51.7 °F 29.92 in Calm     88 % 0.00 in
03:07 55.0 °F 51.5 °F 29.92 in Calm     88 % 0.00 in
03:12 54.6 °F 50.8 °F 29.91 in Calm     87 % 0.00 in
03:17 54.3 °F 50.8 °F 29.91 in Calm     88 % 0.00 in
03:22 54.3 °F 51.1 °F 29.91 in Calm     89 % 0.00 in
03:27 54.3 °F 51.4 °F 29.91 in Calm     90 % 0.00 in
03:32 54.5 °F 51.6 °F 29.91 in Calm     90 % 0.00 in
03:37 54.5 °F 51.3 °F 29.91 in Calm     89 % 0.00 in
03:42 54.6 °F 51.4 °F 29.91 in Calm     89 % 0.00 in
03:47 54.5 °F 51.0 °F 29.91 in Calm     88 % 0.00 in
03:52 54.4 °F 50.9 °F 29.91 in Calm     88 % 0.00 in
03:57 54.5 °F 51.0 °F 29.91 in Calm     88 % 0.00 in
04:02 54.5 °F 51.0 °F 29.90 in Calm     88 % 0.00 in
04:07 54.4 °F 50.9 °F 29.90 in Calm     88 % 0.00 in
04:12 54.3 °F 50.8 °F 29.91 in Calm     88 % 0.00 in
04:17 54.2 °F 50.7 °F 29.90 in Calm     88 % 0.00 in
04:22 54.1 °F 50.6 °F 29.90 in Calm     88 % 0.00 in
04:27 54.2 °F 51.0 °F 29.90 in Calm     89 % 0.00 in
04:32 54.2 °F 51.0 °F 29.90 in Calm     89 % 0.00 in
04:37 54.3 °F 51.1 °F 29.90 in Calm     89 % 0.00 in
04:42 54.7 °F 51.5 °F 29.90 in Calm     89 % 0.00 in
04:47 54.9 °F 51.4 °F 29.90 in Calm     88 % 0.00 in
04:52 54.8 °F 51.3 °F 29.90 in Calm     88 % 0.00 in
04:57 54.7 °F 51.2 °F 29.90 in Calm     88 % 0.00 in
05:02 54.5 °F 51.0 °F 29.90 in Calm     88 % 0.00 in
05:07 54.9 °F 51.1 °F 29.90 in Calm     87 % 0.00 in
05:12 55.3 °F 51.2 °F 29.90 in Calm     86 % 0.00 in
05:17 55.7 °F 50.9 °F 29.91 in Calm     84 % 0.00 in
05:22 55.7 °F 50.9 °F 29.91 in Calm     84 % 0.00 in
05:27 55.5 °F 51.1 °F 29.91 in Calm     85 % 0.00 in
05:32 55.3 °F 50.9 °F 29.91 in Calm     85 % 0.00 in
05:37 55.4 °F 51.0 °F 29.91 in Calm     85 % 0.00 in
05:42 55.2 °F 50.8 °F 29.91 in Calm     85 % 0.00 in
05:47 54.9 °F 50.5 °F 29.91 in Calm     85 % 0.00 in
05:52 54.5 °F 50.4 °F 29.91 in Calm     86 % 0.00 in
05:57 54.4 °F 50.3 °F 29.91 in Calm     86 % 0.00 in
06:02 54.3 °F 50.2 °F 29.91 in Calm     86 % 0.00 in
06:07 54.2 °F 50.1 °F 29.91 in Calm     86 % 0.00 in
06:12 54.2 °F 50.4 °F 29.91 in Calm     87 % 0.00 in
06:17 54.2 °F 50.1 °F 29.91 in Calm     86 % 0.00 in
06:22 53.8 °F 49.7 °F 29.91 in Calm     86 % 0.00 in
06:27 53.2 °F 48.8 °F 29.91 in Calm     85 % 0.00 in
06:32 52.6 °F 48.5 °F 29.91 in Calm     86 % 0.00 in
06:37 52.2 °F 48.4 °F 29.92 in Calm     87 % 0.00 in
06:42 52.0 °F 48.9 °F 29.91 in Calm     89 % 0.00 in
06:47 51.9 °F 48.8 °F 29.91 in Calm     89 % 0.00 in
06:52 51.8 °F 48.7 °F 29.91 in Calm     89 % 0.00 in
06:57 51.7 °F 48.9 °F 29.92 in Calm     90 % 0.00 in
07:02 51.7 °F 48.9 °F 29.91 in Calm     90 % 0.00 in
07:07 51.8 °F 49.3 °F 29.91 in Calm     91 % 0.00 in
07:12 51.9 °F 49.4 °F 29.92 in Calm     91 % 0.00 in
07:17 52.1 °F 49.6 °F 29.92 in Calm     91 % 0.00 in
07:22 52.4 °F 49.8 °F 29.92 in Calm     91 % 0.00 in
07:27 52.5 °F 49.7 °F 29.92 in Calm     90 % 0.00 in
07:32 52.5 °F 49.7 °F 29.92 in Calm     90 % 0.00 in
07:37 52.5 °F 49.7 °F 29.92 in Calm     90 % 0.00 in
07:42 52.4 °F 49.6 °F 29.92 in Calm     90 % 0.00 in
07:47 52.4 °F 49.6 °F 29.93 in Calm     90 % 0.00 in
07:52 52.6 °F 49.8 °F 29.93 in Calm     90 % 0.00 in
07:57 52.7 °F 50.1 °F 29.93 in Calm     91 % 0.00 in
08:02 53.0 °F 50.4 °F 29.93 in Calm     91 % 0.00 in
08:07 53.4 °F 50.8 °F 29.93 in Calm     91 % 0.00 in
08:12 53.8 °F 51.2 °F 29.93 in Calm     91 % 0.00 in
08:17 54.5 °F 51.9 °F 29.93 in Calm     91 % 0.00 in
08:22 55.7 °F 52.8 °F 29.93 in Calm     90 % 0.00 in
08:27 57.3 °F 53.5 °F 29.93 in Calm     87 % 0.00 in
08:32 58.6 °F 53.8 °F 29.93 in Calm     84 % 0.00 in
08:37 60.4 °F 54.5 °F 29.93 in Calm     81 % 0.00 in
08:42 61.6 °F 54.7 °F 29.94 in Calm     78 % 0.00 in
08:47 63.9 °F 55.8 °F 29.94 in Calm     75 % 0.00 in
08:52 65.4 °F 55.4 °F 29.94 in Calm     70 % 0.00 in
08:57 66.4 °F 55.5 °F 29.94 in Calm     68 % 0.00 in
09:02 67.5 °F 55.7 °F 29.94 in Calm     66 % 0.00 in
09:08 68.9 °F 54.4 °F 29.94 in Calm     60 % 0.00 in
09:13 69.7 °F 54.7 °F 29.94 in Calm     59 % 0.00 in
09:18 70.7 °F 54.7 °F 29.94 in Calm     57 % 0.00 in
09:23 71.3 °F 54.3 °F 29.94 in Calm     55 % 0.00 in
09:28 71.3 °F 53.3 °F 29.94 in Calm     53 % 0.00 in
09:33 71.3 °F 53.3 °F 29.94 in Calm     53 % 0.00 in
09:38 71.4 °F 53.4 °F 29.94 in Calm     53 % 0.00 in
09:43 71.8 °F 52.7 °F 29.93 in Calm     51 % 0.00 in
09:48 72.0 °F 53.4 °F 29.93 in Calm     52 % 0.00 in
09:53 72.7 °F 54.6 °F 29.93 in Calm     53 % 0.00 in
09:58 73.1 °F 52.8 °F 29.94 in ESE 1.0 mph 1.0 mph 49 % 0.00 in
10:03 73.6 °F 53.3 °F 29.94 in SE 1.2 mph 1.2 mph 49 % 0.00 in
10:08 74.0 °F 53.1 °F 29.94 in Calm     48 % 0.00 in
10:13 74.6 °F 54.2 °F 29.94 in Calm     49 % 0.00 in
10:18 75.0 °F 53.4 °F 29.94 in SE 1.2 mph   47 % 0.00 in
10:23 75.2 °F 53.0 °F 29.94 in ESE 2.3 mph 2.3 mph 46 % 0.00 in
10:28 75.7 °F 54.0 °F 29.94 in Calm     47 % 0.00 in
10:33 76.1 °F 53.2 °F 29.94 in Calm     45 % 0.00 in
10:38 76.5 °F 54.2 °F 29.94 in NW 2.0 mph 2.0 mph 46 % 0.00 in
10:45 76.9 °F 54.5 °F 29.94 in SSE 2.3 mph 2.3 mph 46 % 0.00 in
10:50 77.3 °F 53.7 °F 29.93 in West 1.2 mph 1.2 mph 44 % 0.00 in
10:55 77.4 °F 55.6 °F 29.93 in SW 2.3 mph 2.3 mph 47 % 0.00 in
11:00 77.9 °F 54.8 °F 29.93 in Calm     45 % 0.00 in
11:06 78.6 °F 54.9 °F 29.93 in SE 1.2 mph   44 % 0.00 in
11:11 79.1 °F 54.0 °F 29.93 in Calm   0.3 mph 42 % 0.00 in
11:16 79.1 °F 54.7 °F 29.93 in SE 1.2 mph 1.2 mph 43 % 0.00 in
11:21 79.3 °F 53.6 °F 29.92 in East 1.0 mph 1.0 mph 41 % 0.00 in
11:26 79.6 °F 55.8 °F 29.92 in North 1.0 mph 1.0 mph 44 % 0.00 in
11:31 79.9 °F 54.8 °F 29.92 in East 1.2 mph   42 % 0.00 in
11:36 80.3 °F 55.1 °F 29.92 in Calm     42 % 0.00 in
11:41 80.6 °F 54.7 °F 29.92 in Calm     41 % 0.00 in
11:46 80.4 °F 54.5 °F 29.92 in Calm   0.1 mph 41 % 0.00 in
11:51 80.4 °F 54.5 °F 29.91 in East 1.2 mph 1.2 mph 41 % 0.00 in
11:56 80.8 °F 56.2 °F 29.91 in ESE 1.2 mph 1.2 mph 43 % 0.00 in
12:01 81.0 °F 53.7 °F 29.91 in NW 1.2 mph 1.2 mph 39 % 0.00 in
12:06 80.9 °F 53.6 °F 29.91 in North 1.2 mph 1.2 mph 39 % 0.00 in
12:11 81.2 °F 54.6 °F 29.90 in NW 1.2 mph 1.2 mph 40 % 0.00 in
12:16 81.4 °F 54.8 °F 29.90 in Calm   0.2 mph 40 % 0.00 in
12:21 82.1 °F 56.7 °F 29.90 in SE 2.3 mph 2.3 mph 42 % 0.00 in
12:26 82.6 °F 55.8 °F 29.90 in South 1.2 mph 1.2 mph 40 % 0.00 in
12:29 82.8 °F 54.6 °F 29.90 in Calm   0.4 mph 38 % 0.00 in
12:34 82.6 °F 55.8 °F 29.89 in West 1.2 mph 1.2 mph 40 % 0.00 in
12:39 82.5 °F 55.7 °F 29.89 in NW 1.2 mph 1.2 mph 40 % 0.00 in
12:45 82.6 °F 56.5 °F 29.89 in NW 1.2 mph   41 % 0.00 in
12:50 83.1 °F 55.6 °F 29.88 in ENE 1.2 mph 1.2 mph 39 % 0.00 in
12:55 83.6 °F 55.3 °F 29.88 in NW 1.2 mph   38 % 0.00 in
13:00 83.9 °F 56.3 °F 29.88 in NW 2.3 mph 2.3 mph 39 % 0.00 in
13:05 83.8 °F 56.9 °F 29.88 in SSE 1.2 mph 1.2 mph 40 % 0.00 in
13:10 84.2 °F 56.6 °F 29.87 in East 3.5 mph 3.5 mph 39 % 0.00 in
13:15 84.3 °F 55.2 °F 29.87 in North 3.5 mph 3.5 mph 37 % 0.00 in
13:20 84.7 °F 56.3 °F 29.87 in NW 2.3 mph 2.3 mph 38 % 0.00 in
13:25 84.9 °F 57.2 °F 29.86 in WNW 2.3 mph 2.3 mph 39 % 0.00 in
13:30 84.7 °F 55.5 °F 29.87 in WNW 1.2 mph 1.2 mph 37 % 0.00 in
13:35 84.3 °F 56.6 °F 29.86 in NW 1.2 mph   39 % 0.00 in
13:40 84.3 °F 55.9 °F 29.86 in NW 1.2 mph 1.2 mph 38 % 0.00 in
13:45 84.2 °F 56.6 °F 29.86 in NW 1.2 mph 1.2 mph 39 % 0.00 in
13:50 84.3 °F 56.6 °F 29.86 in WNW 1.2 mph 1.2 mph 39 % 0.00 in
13:55 84.4 °F 56.0 °F 29.86 in NW 1.2 mph 1.2 mph 38 % 0.00 in
14:00 84.6 °F 56.2 °F 29.85 in WNW 1.2 mph 1.2 mph 38 % 0.00 in
14:05 84.7 °F 57.0 °F 29.85 in WNW 1.2 mph 1.2 mph 39 % 0.00 in
14:10 84.6 °F 56.2 °F 29.85 in NW 1.2 mph 1.2 mph 38 % 0.00 in
14:15 84.9 °F 56.5 °F 29.85 in Calm     38 % 0.00 in
14:20 85.3 °F 56.8 °F 29.84 in West 1.2 mph   38 % 0.00 in
14:25 85.8 °F 57.3 °F 29.84 in Calm     38 % 0.00 in
14:30 85.8 °F 57.3 °F 29.84 in NNW 1.2 mph 1.2 mph 38 % 0.00 in
14:35 86.1 °F 56.8 °F 29.84 in WNW 2.3 mph 2.3 mph 37 % 0.00 in
14:40 86.1 °F 58.2 °F 29.84 in WNW 1.2 mph 1.2 mph 39 % 0.00 in
14:45 85.7 °F 55.7 °F 29.83 in WNW 1.2 mph 1.2 mph 36 % 0.00 in
14:50 85.7 °F 55.7 °F 29.83 in NW 1.0 mph   36 % 0.00 in
14:55 85.6 °F 54.8 °F 29.83 in NW 1.2 mph 1.2 mph 35 % 0.00 in
15:00 86.0 °F 55.9 °F 29.83 in Calm     36 % 0.00 in
15:05 86.2 °F 55.3 °F 29.83 in WSW 2.3 mph   35 % 0.00 in
15:10 86.4 °F 55.5 °F 29.83 in Calm     35 % 0.00 in
15:15 86.4 °F 56.3 °F 29.83 in Calm     36 % 0.00 in
15:20 86.3 °F 55.4 °F 29.83 in NW 1.2 mph 1.2 mph 35 % 0.00 in
15:25 86.1 °F 56.0 °F 29.83 in WNW 2.3 mph 2.3 mph 36 % 0.00 in
15:30 86.0 °F 55.9 °F 29.83 in WNW 2.3 mph 2.3 mph 36 % 0.00 in
15:35 85.8 °F 55.0 °F 29.82 in WNW 1.2 mph   35 % 0.00 in
15:40 85.6 °F 54.8 °F 29.82 in WNW 3.5 mph 3.5 mph 35 % 0.00 in
15:45 85.5 °F 54.7 °F 29.82 in WNW 2.3 mph 2.3 mph 35 % 0.00 in
15:50 85.3 °F 56.1 °F 29.82 in NW 2.3 mph 2.3 mph 37 % 0.00 in
15:55 85.2 °F 56.0 °F 29.82 in West 2.3 mph 2.3 mph 37 % 0.00 in
16:00 85.1 °F 55.1 °F 29.82 in WSW 1.2 mph 1.2 mph 36 % 0.00 in
16:05 85.0 °F 55.1 °F 29.82 in WNW 1.2 mph 1.2 mph 36 % 0.00 in
16:11 84.8 °F 55.6 °F 29.82 in Calm     37 % 0.00 in
16:16 84.8 °F 54.9 °F 29.82 in NW 1.2 mph 1.2 mph 36 % 0.00 in
16:21 84.6 °F 54.7 °F 29.82 in NW 1.2 mph   36 % 0.00 in
16:26 84.5 °F 54.6 °F 29.82 in Calm     36 % 0.00 in
16:27 84.4 °F 55.3 °F 29.82 in West 1.2 mph 1.2 mph 37 % 0.00 in
16:33 84.2 °F 55.1 °F 29.82 in Calm     37 % 0.00 in
16:38 84.0 °F 54.2 °F 29.82 in NW 1.2 mph 1.2 mph 36 % 0.00 in
16:43 83.9 °F 54.8 °F 29.82 in WNW 1.0 mph 1.0 mph 37 % 0.00 in
16:48 83.8 °F 54.7 °F 29.82 in WNW 1.2 mph 1.2 mph 37 % 0.00 in
16:53 83.6 °F 54.6 °F 29.82 in Calm     37 % 0.00 in
16:58 83.4 °F 55.8 °F 29.82 in WNW 1.2 mph   39 % 0.00 in
17:03 83.1 °F 55.6 °F 29.82 in Calm     39 % 0.00 in
17:08 82.8 °F 56.7 °F 29.82 in Calm     41 % 0.00 in
17:13 82.5 °F 56.4 °F 29.82 in Calm     41 % 0.00 in
17:18 82.1 °F 57.4 °F 29.82 in Calm     43 % 0.00 in
17:23 81.6 °F 56.9 °F 29.82 in Calm     43 % 0.00 in
17:28 81.2 °F 57.2 °F 29.82 in Calm     44 % 0.00 in
17:33 80.7 °F 57.4 °F 29.82 in Calm     45 % 0.00 in
17:38 80.4 °F 57.1 °F 29.82 in Calm     45 % 0.00 in
17:43 79.9 °F 56.7 °F 29.82 in WNW 1.2 mph 1.2 mph 45 % 0.00 in
17:48 79.6 °F 56.4 °F 29.82 in Calm     45 % 0.00 in
17:53 79.2 °F 57.2 °F 29.82 in Calm     47 % 0.00 in
17:58 78.5 °F 57.2 °F 29.82 in Calm     48 % 0.00 in
18:03 77.6 °F 57.5 °F 29.82 in Calm     50 % 0.00 in
18:08 76.7 °F 57.7 °F 29.82 in Calm     52 % 0.00 in
18:13 76.0 °F 57.6 °F 29.82 in Calm     53 % 0.00 in
18:18 75.2 °F 57.9 °F 29.82 in Calm     55 % 0.00 in
18:23 74.4 °F 57.7 °F 29.82 in Calm     56 % 0.00 in
18:28 73.6 °F 57.9 °F 29.82 in Calm     58 % 0.00 in
18:33 72.9 °F 57.7 °F 29.82 in Calm     59 % 0.00 in
18:38 72.3 °F 57.6 °F 29.82 in Calm     60 % 0.00 in
18:43 71.8 °F 57.6 °F 29.82 in Calm     61 % 0.00 in
18:48 71.4 °F 56.8 °F 29.82 in Calm     60 % 0.00 in
18:53 71.1 °F 57.0 °F 29.82 in Calm     61 % 0.00 in
18:58 71.0 °F 56.9 °F 29.82 in Calm     61 % 0.00 in
19:03 70.6 °F 57.4 °F 29.82 in Calm     63 % 0.00 in
19:08 70.2 °F 57.4 °F 29.83 in Calm     64 % 0.00 in
19:13 69.8 °F 57.5 °F 29.83 in Calm     65 % 0.00 in
19:18 69.4 °F 58.0 °F 29.83 in Calm     67 % 0.00 in
19:23 68.9 °F 58.3 °F 29.83 in Calm     69 % 0.00 in
19:28 68.3 °F 58.1 °F 29.83 in Calm     70 % 0.00 in
19:34 67.8 °F 57.3 °F 29.83 in Calm     69 % 0.00 in
19:39 67.4 °F 57.3 °F 29.83 in Calm     70 % 0.00 in
19:44 67.0 °F 57.3 °F 29.83 in Calm     71 % 0.00 in
19:49 66.8 °F 57.1 °F 29.83 in Calm     71 % 0.00 in
19:54 66.8 °F 57.1 °F 29.83 in Calm     71 % 0.00 in
19:59 66.7 °F 57.0 °F 29.83 in Calm     71 % 0.00 in
20:04 66.6 °F 56.9 °F 29.83 in Calm     71 % 0.00 in
20:09 66.6 °F 56.9 °F 29.83 in Calm     71 % 0.00 in
20:14 66.8 °F 57.1 °F 29.83 in Calm     71 % 0.00 in
20:19 66.8 °F 57.1 °F 29.83 in Calm     71 % 0.00 in
20:21 66.7 °F 57.0 °F 29.83 in Calm     71 % 0.00 in
20:22 66.7 °F 57.0 °F 29.83 in Calm     71 % 0.00 in
20:26 66.6 °F 56.9 °F 29.83 in Calm     71 % 0.00 in
20:27 66.5 °F 56.8 °F 29.83 in Calm     71 % 0.00 in
20:28 66.5 °F 57.2 °F 29.83 in Calm     72 % 0.00 in
20:33 66.3 °F 57.4 °F 29.83 in Calm     73 % 0.00 in
20:38 65.9 °F 57.4 °F 29.83 in Calm     74 % 0.00 in
20:39 65.8 °F 57.3 °F 29.83 in Calm     74 % 0.00 in
20:43 65.4 °F 57.3 °F 29.84 in Calm     75 % 0.00 in
20:48 64.9 °F 57.2 °F 29.84 in Calm     76 % 0.00 in
20:53 64.5 °F 57.5 °F 29.84 in Calm     78 % 0.00 in
20:58 64.0 °F 57.0 °F 29.84 in Calm     78 % 0.00 in
21:03 63.7 °F 56.7 °F 29.84 in Calm     78 % 0.00 in
21:08 63.3 °F 56.7 °F 29.84 in Calm     79 % 0.00 in
21:13 63.4 °F 56.8 °F 29.84 in Calm     79 % 0.00 in
21:18 63.4 °F 56.8 °F 29.84 in Calm     79 % 0.00 in
21:23 63.2 °F 56.9 °F 29.84 in Calm     80 % 0.00 in
21:28 63.2 °F 56.9 °F 29.84 in Calm     80 % 0.00 in
21:33 63.1 °F 56.8 °F 29.85 in Calm     80 % 0.00 in
21:38 62.8 °F 56.9 °F 29.85 in Calm     81 % 0.00 in
21:43 62.4 °F 56.8 °F 29.85 in Calm     82 % 0.00 in
21:48 61.9 °F 56.3 °F 29.85 in Calm     82 % 0.00 in
21:53 61.6 °F 56.4 °F 29.85 in Calm     83 % 0.00 in
21:58 61.3 °F 56.1 °F 29.85 in Calm     83 % 0.00 in
22:03 60.9 °F 55.7 °F 29.85 in Calm     83 % 0.00 in
22:08 60.5 °F 55.6 °F 29.85 in Calm     84 % 0.00 in
22:13 60.2 °F 55.0 °F 29.85 in Calm     83 % 0.00 in
22:18 59.9 °F 55.1 °F 29.85 in Calm     84 % 0.00 in
22:23 59.7 °F 54.5 °F 29.85 in Calm     83 % 0.00 in
22:28 59.6 °F 54.8 °F 29.86 in Calm     84 % 0.00 in
22:33 59.4 °F 54.9 °F 29.86 in Calm     85 % 0.00 in
22:38 59.2 °F 54.7 °F 29.86 in Calm     85 % 0.00 in
22:43 59.3 °F 54.8 °F 29.86 in Calm     85 % 0.00 in
22:48 59.3 °F 54.8 °F 29.86 in Calm     85 % 0.00 in
22:53 59.3 °F 54.5 °F 29.86 in Calm     84 % 0.00 in
22:58 59.3 °F 54.5 °F 29.86 in Calm     84 % 0.00 in
23:03 59.1 °F 54.6 °F 29.86 in Calm     85 % 0.00 in
23:08 58.8 °F 54.3 °F 29.86 in Calm     85 % 0.00 in
23:13 58.6 °F 54.1 °F 29.86 in Calm     85 % 0.00 in
23:19 58.3 °F 54.1 °F 29.86 in Calm     86 % 0.00 in
23:24 58.1 °F 53.9 °F 29.86 in Calm     86 % 0.00 in
23:29 58.0 °F 54.2 °F 29.86 in Calm     87 % 0.00 in
23:34 58.0 °F 54.2 °F 29.86 in Calm     87 % 0.00 in
23:39 58.0 °F 54.2 °F 29.86 in Calm     87 % 0.00 in
23:44 57.9 °F 54.1 °F 29.86 in Calm     87 % 0.00 in
23:49 58.0 °F 54.2 °F 29.85 in Calm     87 % 0.00 in
23:54 58.1 °F 54.2 °F 29.85 in Calm     87 % 0.00 in
23:59 58.4 °F 54.2 °F 29.85 in Calm     86 % 0.00 in
Park Place, Exeter, Tulare County, California, USA
Compliments of Weather Underground - 2.75 mb